Ana Sayfa
METAR-TAF:

METAR-TAF

Havaalanları :

Guilin, Çin

Enlem: 25-20N, Boylam: 110-18E, yükseklik: 166 m

Güncel hava durumu gözlemi

Rapor saat 12:00 UTC de 42 dakika önce yapıldı.
Rüzgar değişken yönden 2 kt
Sıcaklık 14°C
Nem 77%
Basınç 1021 hPa
Görüş mesafesi: 8000 m
5300 ft yükseklikte az bulutlu

METAR: ZGKL 131200Z VRB01MPS 8000 FEW053 14/10 Q1021 NOSIG

Saat: 20:42 (12:42 UTC)

Tahmin

Rapor saat 09:06 UTC de 3 saat ve 36 dakika önce yapıldı.
Ayın 13'si saat 12 UTC'den ayın 14'si saat 12 UTC'ye kadar geçerli Tahmin
Rüzgar kuzeydoğudan 6 kt
Görüş mesafesi 10 km veya daha fazla
1500 m altında bulut yok ve kümülonimbus yok

TAF: ZGKL 130906Z 1312/1412 05003MPS CAVOK TX25/1408Z TN05/1323Z

4.000'den fazla havaalanı için hava durumu gözlemleri ve tahminleri (METAR ve TAF raporları).

Kullanılabilir istasyonlar harita üzerinde sarı ve kırmızı noktalarla gösterilir.

İstasyonun adını görmek için fareyi noktanın üzerinde gezdirin.

Sonrasında hava gözlem ve tahminlerini görmek için tıklayın.

Haritayı değiştirmek için: yaklaştırmak için siyah artı işaretli yeşil düğmeye ve uzaklaştırmak için de eksi işaretli düğmeye hızla tıklayın; bitişik haritalar için yeşil okları kullanın.


METAR-TAF: